Portada
METAR-TAF:

METAR-TAF

Aeropuertos :

San Sebastián, España

Aeropuerto de San Sebastián

latitud: 43-21N, longitud: 001-48W, altitud: 5 m

Observación

El informe se hizo hace 29 minutos, a las 08:00 UTC
Viento calma
Temperatura 8°C
Humedad 93%
Presión 1024 hPa
Visibilidad 10 km o más
Cielo nuboso a una altura de 2300 ft

METAR: LESO 180800Z 00000KT 9999 BKN023 08/07 Q1024

Hora: 09:29 (08:29 UTC)

Pronóstico

El informe se hizo hace 3 horas y 29 minutos, a las 05:00 UTC
Pronóstico válido del 18 a las 06 UTC al 19 a las 06 UTC
Viento 4 kt del sur-suroeste
Visibilidad 10 km o más
Nubes dispersas a una altura de 2500 ft
Probabilidad 40% :
Temporalmente
del 18 a las 11 UTC al 18 a las 18 UTC
Viento 10 kt del norte

TAF: LESO 180500Z 1806/1906 20004KT 9999 SCT025 TX14/1814Z TN06/1906Z PROB40 TEMPO 1811/1818 36010KT

Observaciones y pronósticos meteorológicos de más de 4000 aeropuertos (mensajes METAR y TAF).

Los puntos amarillos y rojos representan las estaciones disponibles.

Ponga el ratón en el punto deseado para ver el nombre de la estación.

Haga clic para ver las observaciones y los pronósticos meteorológicos.

Para cambiar el mapa : haga clic en los botones verdes con una cruz de color negro para hacer un zoom, en el botón verde con un guión para alejar o en las flechas verdes para mapas adyacentes.


METAR-TAF: